Time;durP1;ratioP1;P1;durP2;ratioP2;P2;SDS_P1;SDS_P2;PMS_P1;PMS_P2;Temp;Humidity;BMP_temperature;BMP_pressure;BME280_temperature;BME280_humidity;BME280_pressure;Samples;Min_cycle;Max_cycle;Signal;HPM_P1;HPM_P2
2022/01/13 00:02:05;;;;;;;80.43;17.70;;;;;;;;;;5111086;28;20224;-67
2022/01/13 00:04:32;;;;;;;85.38;18.67;;;;;;;;;;5109051;28;20201;-67
2022/01/13 00:06:59;;;;;;;80.75;18.55;;;;;;;;;;5111206;28;20215;-67
2022/01/13 00:09:28;;;;;;;82.40;18.80;;;;;;;;;;5110652;28;20319;-67
2022/01/13 00:11:57;;;;;;;79.75;18.20;;;;;;;;;;5114069;28;20220;-67
2022/01/13 00:14:38;;;;;;;84.55;20.73;;;;;;;;;;5114460;28;20205;-67
2022/01/13 00:17:23;;;;;;;85.32;17.75;;;;;;;;;;5114644;27;20296;-67
2022/01/13 00:20:08;;;;;;;87.55;18.98;;;;;;;;;;5114695;28;20574;-68
2022/01/13 00:22:48;;;;;;;81.55;18.85;;;;;;;;;;5114704;28;20224;-67
2022/01/13 00:25:19;;;;;;;79.47;16.20;;;;;;;;;;5115088;28;20265;-67
2022/01/13 00:27:53;;;;;;;83.35;17.13;;;;;;;;;;5114849;27;20200;-67
2022/01/13 00:30:21;;;;;;;84.47;17.27;;;;;;;;;;5114786;27;20613;-67
2022/01/13 00:32:48;;;;;;;82.70;19.48;;;;;;;;;;5114545;28;20227;-67
2022/01/13 00:35:17;;;;;;;81.72;18.73;;;;;;;;;;5103177;28;20207;-67
2022/01/13 00:37:44;;;;;;;88.20;18.67;;;;;;;;;;5093501;28;20209;-67
2022/01/13 00:40:11;;;;;;;84.65;19.52;;;;;;;;;;5094160;28;20569;-67
2022/01/13 00:42:40;;;;;;;82.60;17.80;;;;;;;;;;5093693;28;20607;-68
2022/01/13 00:45:09;;;;;;;85.60;20.75;;;;;;;;;;5094075;28;20296;-68
2022/01/13 00:47:37;;;;;;;82.25;17.05;;;;;;;;;;5093393;28;20704;-66
2022/01/13 00:50:05;;;;;;;82.03;18.80;;;;;;;;;;5093851;28;20225;-67
2022/01/13 00:52:32;;;;;;;86.07;18.52;;;;;;;;;;5093707;28;20225;-66
2022/01/13 00:55:03;;;;;;;86.22;19.58;;;;;;;;;;5093689;28;20208;-67
2022/01/13 00:57:32;;;;;;;87.18;18.50;;;;;;;;;;5093583;28;20212;-67
2022/01/13 01:00:00;;;;;;;84.93;18.63;;;;;;;;;;5093911;28;20213;-67
2022/01/13 01:02:27;;;;;;;81.78;18.92;;;;;;;;;;5093460;28;20674;-67
2022/01/13 01:04:55;;;;;;;80.68;18.85;;;;;;;;;;5093465;28;20273;-67
2022/01/13 01:07:22;;;;;;;83.35;17.58;;;;;;;;;;5106150;28;20578;-67
2022/01/13 01:09:50;;;;;;;85.20;18.70;;;;;;;;;;5113572;28;20227;-67
2022/01/13 01:12:18;;;;;;;84.60;18.15;;;;;;;;;;5113789;28;20224;-67
2022/01/13 01:14:49;;;;;;;78.93;18.60;;;;;;;;;;5113799;28;20204;-67
2022/01/13 01:17:17;;;;;;;80.57;16.98;;;;;;;;;;5113265;28;20220;-67
2022/01/13 01:19:48;;;;;;;90.65;20.20;;;;;;;;;;5113777;28;20257;-67
2022/01/13 01:25:06;;;;;;;78.35;17.73;;;;;;;;;;5110681;28;20204;-67
2022/01/13 01:27:37;;;;;;;82.90;17.52;;;;;;;;;;5113386;28;20215;-67
2022/01/13 01:30:10;;;;;;;80.15;18.88;;;;;;;;;;5113466;28;20231;-67
2022/01/13 01:32:40;;;;;;;83.43;18.50;;;;;;;;;;5113008;28;20224;-67
2022/01/13 01:35:13;;;;;;;80.40;17.27;;;;;;;;;;5113780;28;20208;-67
2022/01/13 01:37:41;;;;;;;81.35;17.85;;;;;;;;;;5111730;28;20676;-67
2022/01/13 01:40:09;;;;;;;84.55;18.85;;;;;;;;;;5113284;28;20736;-67
2022/01/13 01:42:36;;;;;;;83.90;19.58;;;;;;;;;;5112983;28;20220;-67
2022/01/13 01:45:04;;;;;;;81.40;17.55;;;;;;;;;;5113146;28;20231;-66
2022/01/13 01:47:32;;;;;;;79.95;17.98;;;;;;;;;;5113057;28;20637;-67
2022/01/13 01:50:09;;;;;;;90.50;20.83;;;;;;;;;;5112982;28;20259;-67
2022/01/13 01:52:36;;;;;;;80.40;17.27;;;;;;;;;;5112924;28;20707;-67
2022/01/13 01:55:04;;;;;;;87.72;19.75;;;;;;;;;;5113015;27;20291;-67
2022/01/13 01:57:31;;;;;;;81.25;17.55;;;;;;;;;;5112464;28;20204;-67
2022/01/13 01:59:58;;;;;;;87.60;19.55;;;;;;;;;;5112714;28;20211;-67
2022/01/13 02:02:27;;;;;;;82.20;18.05;;;;;;;;;;5112850;28;20593;-67
2022/01/13 02:04:54;;;;;;;80.75;18.20;;;;;;;;;;5112922;28;20208;-67
2022/01/13 02:07:23;;;;;;;84.03;17.95;;;;;;;;;;5112460;28;20291;-67
2022/01/13 02:09:52;;;;;;;79.38;15.60;;;;;;;;;;5100878;28;20224;-67
2022/01/13 02:12:31;;;;;;;81.10;17.40;;;;;;;;;;5091849;28;20549;-67
2022/01/13 02:15:05;;;;;;;89.00;19.05;;;;;;;;;;5101827;28;20215;-67
2022/01/13 02:17:34;;;;;;;88.07;22.27;;;;;;;;;;5112050;28;20303;-67
2022/01/13 02:20:03;;;;;;;88.35;18.05;;;;;;;;;;5112807;28;20270;-67
2022/01/13 02:22:32;;;;;;;81.35;16.92;;;;;;;;;;5112210;28;20784;-67
2022/01/13 02:24:59;;;;;;;81.22;17.90;;;;;;;;;;5112558;28;20207;-67
2022/01/13 02:27:26;;;;;;;82.13;17.25;;;;;;;;;;5112451;28;20243;-66
2022/01/13 02:29:54;;;;;;;82.68;18.77;;;;;;;;;;5112600;28;20220;-67
2022/01/13 02:32:21;;;;;;;79.70;16.05;;;;;;;;;;5112534;28;20591;-67
2022/01/13 02:34:48;;;;;;;77.35;16.90;;;;;;;;;;5111849;28;20602;-67
2022/01/13 02:37:16;;;;;;;81.35;18.90;;;;;;;;;;5111969;28;20693;-67
2022/01/13 02:39:44;;;;;;;80.75;16.42;;;;;;;;;;5112050;28;20285;-67
2022/01/13 02:42:14;;;;;;;81.65;17.58;;;;;;;;;;5093105;28;20307;-67
2022/01/13 02:44:49;;;;;;;82.40;18.83;;;;;;;;;;5091924;28;20209;-67
2022/01/13 02:47:36;;;;;;;82.93;18.50;;;;;;;;;;5091992;28;20212;-67
2022/01/13 02:50:04;;;;;;;81.90;17.88;;;;;;;;;;5092293;28;20228;-67
2022/01/13 02:52:31;;;;;;;83.88;18.20;;;;;;;;;;5111845;28;20666;-67
2022/01/13 02:55:00;;;;;;;80.55;17.40;;;;;;;;;;5111862;28;20690;-67
2022/01/13 02:57:27;;;;;;;79.72;16.58;;;;;;;;;;5111585;28;20308;-67
2022/01/13 02:59:54;;;;;;;82.22;17.83;;;;;;;;;;5111874;28;20200;-67
2022/01/13 03:02:28;;;;;;;79.32;17.60;;;;;;;;;;5111909;28;20315;-67
2022/01/13 03:04:55;;;;;;;86.10;19.15;;;;;;;;;;5112429;28;20237;-67
2022/01/13 03:07:22;;;;;;;80.90;17.17;;;;;;;;;;5111554;28;20295;-67
2022/01/13 03:09:49;;;;;;;86.85;19.38;;;;;;;;;;5111741;28;20221;-67
2022/01/13 03:12:18;;;;;;;82.15;17.60;;;;;;;;;;5110189;28;20232;-67
2022/01/13 03:14:45;;;;;;;84.28;18.25;;;;;;;;;;5111669;28;20208;-67
2022/01/13 03:17:12;;;;;;;84.30;17.90;;;;;;;;;;5111739;28;20291;-66
2022/01/13 03:19:39;;;;;;;80.10;17.27;;;;;;;;;;5111540;28;20206;-67
2022/01/13 03:22:07;;;;;;;82.03;17.83;;;;;;;;;;5111737;28;20310;-67
2022/01/13 03:24:34;;;;;;;85.93;18.42;;;;;;;;;;5111490;28;20208;-67
2022/01/13 03:27:02;;;;;;;81.80;17.02;;;;;;;;;;5112038;28;20211;-67
2022/01/13 03:29:31;;;;;;;82.45;18.48;;;;;;;;;;5111407;28;20285;-67
2022/01/13 03:31:59;;;;;;;81.55;18.20;;;;;;;;;;5111734;28;20252;-67
2022/01/13 03:34:26;;;;;;;82.50;17.92;;;;;;;;;;5111286;28;20680;-67
2022/01/13 03:36:54;;;;;;;86.18;17.85;;;;;;;;;;5111551;28;20211;-67
2022/01/13 03:39:22;;;;;;;83.90;17.98;;;;;;;;;;5111198;28;20397;-67
2022/01/13 03:41:49;;;;;;;81.82;17.33;;;;;;;;;;5111563;28;20243;-66
2022/01/13 03:44:27;;;;;;;87.40;17.83;;;;;;;;;;5106283;28;20683;-67
2022/01/13 03:46:56;;;;;;;83.30;17.60;;;;;;;;;;5094261;28;20209;-67
2022/01/13 03:49:23;;;;;;;77.95;17.42;;;;;;;;;;5094735;28;20773;-67
2022/01/13 03:52:09;;;;;;;83.03;17.92;;;;;;;;;;5094682;28;20229;-67
2022/01/13 03:54:54;;;;;;;85.22;18.23;;;;;;;;;;5112191;28;20583;-67
2022/01/13 03:57:39;;;;;;;84.05;18.67;;;;;;;;;;5114804;28;20199;-67
2022/01/13 04:00:24;;;;;;;84.15;19.67;;;;;;;;;;5115212;28;20201;-67
2022/01/13 04:02:53;;;;;;;79.70;17.20;;;;;;;;;;5115130;28;20224;-67
2022/01/13 04:05:20;;;;;;;85.57;20.30;;;;;;;;;;5114978;28;20211;-67
2022/01/13 04:07:47;;;;;;;84.07;18.90;;;;;;;;;;5115034;28;20216;-67
2022/01/13 04:10:35;;;;;;;86.22;18.25;;;;;;;;;;5115019;28;20726;-67
2022/01/13 04:13:11;;;;;;;86.90;18.65;;;;;;;;;;5115107;28;20231;-67
2022/01/13 04:15:46;;;;;;;88.00;22.27;;;;;;;;;;5117657;28;20204;-67
2022/01/13 04:18:14;;;;;;;85.22;19.63;;;;;;;;;;5118961;28;20210;-67
2022/01/13 04:20:41;;;;;;;87.97;18.10;;;;;;;;;;5120060;28;20292;-67
2022/01/13 04:23:09;;;;;;;85.90;19.52;;;;;;;;;;5120202;28;20291;-67
2022/01/13 04:25:36;;;;;;;88.65;19.70;;;;;;;;;;5121964;28;20216;-68
2022/01/13 04:28:04;;;;;;;89.70;20.90;;;;;;;;;;5124985;28;20261;-67
2022/01/13 04:30:45;;;;;;;93.95;21.55;;;;;;;;;;5121778;28;20220;-67
2022/01/13 04:33:14;;;;;;;88.90;22.13;;;;;;;;;;5131195;28;20220;-67
2022/01/13 04:35:42;;;;;;;88.45;21.38;;;;;;;;;;5131276;28;20239;-67
2022/01/13 04:38:09;;;;;;;86.68;20.52;;;;;;;;;;5126254;27;20287;-66
2022/01/13 04:40:43;;;;;;;88.70;22.67;;;;;;;;;;5122771;28;20650;-66
2022/01/13 04:43:10;;;;;;;92.93;20.30;;;;;;;;;;5133322;28;20341;-66
2022/01/13 04:45:38;;;;;;;98.47;20.10;;;;;;;;;;5134211;28;20208;-66
2022/01/13 04:48:05;;;;;;;95.80;21.75;;;;;;;;;;5120278;28;20244;-66
2022/01/13 04:50:34;;;;;;;88.05;20.15;;;;;;;;;;5113282;28;20232;-66
2022/01/13 04:53:01;;;;;;;90.53;21.60;;;;;;;;;;5112886;28;20689;-66
2022/01/13 04:55:31;;;;;;;85.13;19.33;;;;;;;;;;5112569;28;20268;-66
2022/01/13 04:57:59;;;;;;;83.68;19.67;;;;;;;;;;5095133;28;20220;-67
2022/01/13 05:00:27;;;;;;;88.28;20.05;;;;;;;;;;5093745;28;20215;-67
2022/01/13 05:02:54;;;;;;;90.78;22.05;;;;;;;;;;5093884;28;20593;-68
2022/01/13 05:05:22;;;;;;;87.57;19.85;;;;;;;;;;5094185;28;20207;-68
2022/01/13 05:07:50;;;;;;;89.32;20.02;;;;;;;;;;5093519;28;20213;-68
2022/01/13 05:10:18;;;;;;;91.35;20.90;;;;;;;;;;5093885;28;20235;-68
2022/01/13 05:12:47;;;;;;;86.70;19.88;;;;;;;;;;5093324;28;20229;-68
2022/01/13 05:15:19;;;;;;;88.22;19.83;;;;;;;;;;5093322;28;20561;-68
2022/01/13 05:20:42;;;;;;;86.90;20.17;;;;;;;;;;5093210;28;20197;-68
2022/01/13 05:23:11;;;;;;;87.60;18.88;;;;;;;;;;5093550;28;20224;-68
2022/01/13 05:25:38;;;;;;;88.43;18.83;;;;;;;;;;5093007;28;20296;-68
2022/01/13 05:28:06;;;;;;;82.72;18.50;;;;;;;;;;5093021;28;20201;-67
2022/01/13 05:30:33;;;;;;;81.55;19.02;;;;;;;;;;5092992;28;20311;-68
2022/01/13 05:33:00;;;;;;;85.40;18.80;;;;;;;;;;5092962;28;20225;-68
2022/01/13 05:35:27;;;;;;;84.40;20.90;;;;;;;;;;5093003;28;20212;-68
2022/01/13 05:37:55;;;;;;;84.65;19.88;;;;;;;;;;5092497;28;20291;-67
2022/01/13 05:40:23;;;;;;;85.30;19.42;;;;;;;;;;5092868;28;20201;-67
2022/01/13 05:42:51;;;;;;;90.88;19.58;;;;;;;;;;5093397;28;20229;-68
2022/01/13 05:45:20;;;;;;;84.22;20.08;;;;;;;;;;5092808;28;20698;-67
2022/01/13 05:47:49;;;;;;;86.03;19.55;;;;;;;;;;5092352;28;20212;-67
2022/01/13 05:50:18;;;;;;;86.25;20.63;;;;;;;;;;5100346;28;20226;-67
2022/01/13 05:52:45;;;;;;;89.25;21.30;;;;;;;;;;5113175;28;20592;-67
2022/01/13 05:55:12;;;;;;;89.68;21.30;;;;;;;;;;5112969;28;20203;-66
2022/01/13 05:57:41;;;;;;;88.72;20.85;;;;;;;;;;5112590;28;20204;-67
2022/01/13 06:00:11;;;;;;;85.10;20.30;;;;;;;;;;5112939;28;20556;-67
2022/01/13 06:02:38;;;;;;;83.63;18.90;;;;;;;;;;5112562;28;20260;-67
2022/01/13 06:05:06;;;;;;;85.68;18.73;;;;;;;;;;5112501;28;20216;-67
2022/01/13 06:07:33;;;;;;;87.47;18.70;;;;;;;;;;5112640;28;20227;-66
2022/01/13 06:10:00;;;;;;;84.53;19.88;;;;;;;;;;5112300;28;20224;-66
2022/01/13 06:12:33;;;;;;;84.28;21.10;;;;;;;;;;5112295;28;20224;-66
2022/01/13 06:15:03;;;;;;;89.45;20.90;;;;;;;;;;5112509;28;20208;-66
2022/01/13 06:17:30;;;;;;;82.28;19.27;;;;;;;;;;5112432;28;20291;-67
2022/01/13 06:19:59;;;;;;;85.25;19.77;;;;;;;;;;5112335;28;20204;-66
2022/01/13 06:22:26;;;;;;;88.03;22.15;;;;;;;;;;5110419;28;20225;-67
2022/01/13 06:24:53;;;;;;;86.93;19.05;;;;;;;;;;5112508;28;20207;-67
2022/01/13 06:27:22;;;;;;;83.88;19.20;;;;;;;;;;5112428;28;20637;-67
2022/01/13 06:29:49;;;;;;;88.72;19.67;;;;;;;;;;5113066;28;20295;-66
2022/01/13 06:32:18;;;;;;;83.70;20.45;;;;;;;;;;5112018;28;20224;-66
2022/01/13 06:34:45;;;;;;;89.88;20.25;;;;;;;;;;5112112;28;20208;-67
2022/01/13 06:37:12;;;;;;;91.38;22.02;;;;;;;;;;5111810;28;20204;-66
2022/01/13 06:39:39;;;;;;;86.65;19.92;;;;;;;;;;5112088;28;20571;-66
2022/01/13 06:42:07;;;;;;;86.10;21.00;;;;;;;;;;5111962;28;20220;-66
2022/01/13 06:44:34;;;;;;;87.80;19.63;;;;;;;;;;5111840;28;20204;-66
2022/01/13 06:47:01;;;;;;;82.65;18.17;;;;;;;;;;5112222;28;20210;-66
2022/01/13 06:49:29;;;;;;;89.72;20.77;;;;;;;;;;5112261;28;20204;-66
2022/01/13 06:51:57;;;;;;;86.70;19.70;;;;;;;;;;5111669;28;20314;-66
2022/01/13 06:54:24;;;;;;;92.93;20.25;;;;;;;;;;5093440;28;20291;-67
2022/01/13 06:56:51;;;;;;;88.88;22.15;;;;;;;;;;5091254;28;20254;-66
2022/01/13 06:59:18;;;;;;;87.53;21.02;;;;;;;;;;5090801;28;20658;-66
2022/01/13 07:01:47;;;;;;;87.45;21.48;;;;;;;;;;5091406;28;20567;-67
2022/01/13 07:04:14;;;;;;;96.80;25.38;;;;;;;;;;5091497;28;20212;-66
2022/01/13 07:06:43;;;;;;;91.45;23.27;;;;;;;;;;5091442;28;20698;-67
2022/01/13 07:09:14;;;;;;;86.53;21.33;;;;;;;;;;5090906;28;20205;-66
2022/01/13 07:11:41;;;;;;;88.00;21.33;;;;;;;;;;5091125;28;20225;-67
2022/01/13 07:14:09;;;;;;;82.20;19.38;;;;;;;;;;5091425;28;20205;-66
2022/01/13 07:16:36;;;;;;;85.70;20.65;;;;;;;;;;5091570;28;20356;-66
2022/01/13 07:19:04;;;;;;;83.60;20.27;;;;;;;;;;5090865;28;20212;-66
2022/01/13 07:21:31;;;;;;;80.78;18.45;;;;;;;;;;5093791;28;20618;-66
2022/01/13 07:24:00;;;;;;;83.30;18.67;;;;;;;;;;5094532;28;20211;-66
2022/01/13 07:26:27;;;;;;;85.43;19.52;;;;;;;;;;5115379;28;20208;-67
2022/01/13 07:28:54;;;;;;;91.55;20.90;;;;;;;;;;5115612;28;20290;-67
2022/01/13 07:31:21;;;;;;;87.03;19.70;;;;;;;;;;5115572;28;20232;-68
2022/01/13 07:33:48;;;;;;;81.80;18.90;;;;;;;;;;5115833;28;20233;-67
2022/01/13 07:36:16;;;;;;;88.57;20.92;;;;;;;;;;5115634;28;20207;-67
2022/01/13 07:38:43;;;;;;;81.18;18.92;;;;;;;;;;5115203;28;20214;-67
2022/01/13 07:41:11;;;;;;;86.00;20.50;;;;;;;;;;5115674;28;20626;-67
2022/01/13 07:43:42;;;;;;;78.38;17.67;;;;;;;;;;5115551;28;20235;-67
2022/01/13 07:46:09;;;;;;;81.63;18.92;;;;;;;;;;5115832;28;20203;-67
2022/01/13 07:48:36;;;;;;;85.25;17.77;;;;;;;;;;5115291;28;20668;-67
2022/01/13 07:51:03;;;;;;;82.53;19.60;;;;;;;;;;5115658;28;20688;-67
2022/01/13 07:53:30;;;;;;;80.93;19.05;;;;;;;;;;5115089;28;20314;-67
2022/01/13 07:55:58;;;;;;;79.55;18.65;;;;;;;;;;5109304;28;20636;-67
2022/01/13 07:58:26;;;;;;;87.85;20.40;;;;;;;;;;5094272;28;20211;-68
2022/01/13 08:00:53;;;;;;;82.60;18.92;;;;;;;;;;5094611;28;20201;-67
2022/01/13 08:03:21;;;;;;;82.13;18.00;;;;;;;;;;5094672;28;20291;-67
2022/01/13 08:05:48;;;;;;;82.82;18.95;;;;;;;;;;5094534;28;20205;-68
2022/01/13 08:08:15;;;;;;;85.53;18.40;;;;;;;;;;5094443;28;20217;-68
2022/01/13 08:10:42;;;;;;;81.45;18.40;;;;;;;;;;5095134;28;20320;-68
2022/01/13 08:13:09;;;;;;;86.50;20.40;;;;;;;;;;5093274;28;20312;-68
2022/01/13 08:15:40;;;;;;;82.13;19.13;;;;;;;;;;5094549;28;20231;-67
2022/01/13 08:20:51;;;;;;;84.20;18.65;;;;;;;;;;5094486;28;20327;-68
2022/01/13 08:23:19;;;;;;;79.88;17.80;;;;;;;;;;5094813;28;20568;-68
2022/01/13 08:25:46;;;;;;;81.55;19.23;;;;;;;;;;5094381;28;20201;-68
2022/01/13 08:28:13;;;;;;;85.75;18.30;;;;;;;;;;5103171;28;20306;-68
2022/01/13 08:30:41;;;;;;;82.68;18.80;;;;;;;;;;5115401;28;20224;-68
2022/01/13 08:33:09;;;;;;;89.38;20.42;;;;;;;;;;5113658;28;20228;-67
2022/01/13 08:35:36;;;;;;;78.40;16.98;;;;;;;;;;5114815;28;20208;-67
2022/01/13 08:38:08;;;;;;;88.15;20.30;;;;;;;;;;5114092;28;20204;-68
2022/01/13 08:40:35;;;;;;;81.82;16.83;;;;;;;;;;5114365;28;20581;-68
2022/01/13 08:43:03;;;;;;;84.05;19.05;;;;;;;;;;5114979;28;20231;-68
2022/01/13 08:45:30;;;;;;;79.97;16.58;;;;;;;;;;5114594;28;20527;-68
2022/01/13 08:47:58;;;;;;;83.40;17.67;;;;;;;;;;5114752;28;20204;-67
2022/01/13 08:50:26;;;;;;;82.32;17.58;;;;;;;;;;5115461;28;20200;-67
2022/01/13 08:52:53;;;;;;;87.40;19.13;;;;;;;;;;5114844;28;20307;-68
2022/01/13 08:55:20;;;;;;;79.85;15.80;;;;;;;;;;5115004;28;20214;-68
2022/01/13 08:57:47;;;;;;;81.53;17.20;;;;;;;;;;5114220;28;20208;-68
2022/01/13 09:00:14;;;;;;;81.40;17.10;;;;;;;;;;5095589;28;20578;-68
2022/01/13 09:02:42;;;;;;;79.63;16.50;;;;;;;;;;5093671;28;20223;-68
2022/01/13 09:05:12;;;;;;;79.30;16.92;;;;;;;;;;5093724;28;20237;-68
2022/01/13 09:07:39;;;;;;;77.72;15.70;;;;;;;;;;5093125;28;20694;-68
2022/01/13 09:10:06;;;;;;;78.95;17.90;;;;;;;;;;5093802;28;20295;-68
2022/01/13 09:12:34;;;;;;;76.70;15.35;;;;;;;;;;5093280;28;20282;-67
2022/01/13 09:15:13;;;;;;;77.88;15.35;;;;;;;;;;5094214;28;20200;-67
2022/01/13 09:17:42;;;;;;;74.65;14.98;;;;;;;;;;5093768;28;20209;-67
2022/01/13 09:20:11;;;;;;;77.25;14.48;;;;;;;;;;5093830;28;20610;-68
2022/01/13 09:22:39;;;;;;;70.32;12.38;;;;;;;;;;5093165;28;20615;-68
2022/01/13 09:25:07;;;;;;;67.88;9.35;;;;;;;;;;5093558;28;20212;-68
2022/01/13 09:27:35;;;;;;;73.25;10.80;;;;;;;;;;5093240;28;20209;-68
2022/01/13 09:30:02;;;;;;;71.55;10.85;;;;;;;;;;5097555;28;20204;-68
2022/01/13 09:32:29;;;;;;;67.75;10.30;;;;;;;;;;5113412;28;20228;-68
2022/01/13 09:34:56;;;;;;;68.10;9.10;;;;;;;;;;5113814;28;20291;-68
2022/01/13 09:37:25;;;;;;;65.60;7.57;;;;;;;;;;5113024;28;20668;-68
2022/01/13 09:39:52;;;;;;;68.18;8.80;;;;;;;;;;5113247;28;20211;-68
2022/01/13 09:42:20;;;;;;;71.95;9.43;;;;;;;;;;5113357;28;20224;-68
2022/01/13 09:44:48;;;;;;;64.45;8.68;;;;;;;;;;5112451;28;20208;-68
2022/01/13 09:47:15;;;;;;;69.82;9.68;;;;;;;;;;5113196;28;20707;-68
2022/01/13 09:49:44;;;;;;;69.38;9.80;;;;;;;;;;5113209;28;20595;-68
2022/01/13 09:52:11;;;;;;;76.75;11.63;;;;;;;;;;5113031;28;20224;-68
2022/01/13 09:54:39;;;;;;;70.60;11.30;;;;;;;;;;5113321;28;20205;-68
2022/01/13 09:57:07;;;;;;;70.75;10.30;;;;;;;;;;5112859;28;20234;-67
2022/01/13 09:59:34;;;;;;;71.18;10.60;;;;;;;;;;5113051;28;20204;-68
2022/01/13 10:02:01;;;;;;;68.70;10.38;;;;;;;;;;5111062;28;20307;-68
2022/01/13 10:04:43;;;;;;;68.35;10.25;;;;;;;;;;5112775;28;20208;-68
2022/01/13 10:07:11;;;;;;;71.95;11.30;;;;;;;;;;5112296;28;20204;-68
2022/01/13 10:09:53;;;;;;;71.28;11.00;;;;;;;;;;5113033;28;20200;-68
2022/01/13 10:12:24;;;;;;;69.80;10.82;;;;;;;;;;5112822;27;20228;-68
2022/01/13 10:17:47;;;;;;;66.90;9.50;;;;;;;;;;5112298;28;20529;-69
2022/01/13 10:20:16;;;;;;;68.17;10.40;;;;;;;;;;5112382;28;20531;-68
2022/01/13 10:22:43;;;;;;;67.30;9.97;;;;;;;;;;5112383;28;20892;-68
2022/01/13 10:25:26;;;;;;;70.80;10.87;;;;;;;;;;5112466;28;21021;-66
2022/01/13 10:27:54;;;;;;;72.10;10.87;;;;;;;;;;5112870;28;20788;-66
2022/01/13 10:30:25;;;;;;;68.60;10.27;;;;;;;;;;5113590;28;20552;-68
2022/01/13 10:32:53;;;;;;;70.47;10.83;;;;;;;;;;5101784;28;20517;-68
2022/01/13 10:35:22;;;;;;;68.47;10.77;;;;;;;;;;5091844;28;20439;-66
2022/01/13 10:37:53;;;;;;;68.57;10.00;;;;;;;;;;5091981;28;20451;-68
2022/01/13 10:40:23;;;;;;;70.00;10.50;;;;;;;;;;5092550;28;20458;-66
2022/01/13 10:43:11;;;;;;;66.87;9.90;;;;;;;;;;5092406;28;20508;-68
2022/01/13 10:45:41;;;;;;;67.17;10.00;;;;;;;;;;5092905;28;20486;-69
2022/01/13 10:48:09;;;;;;;66.50;10.27;;;;;;;;;;5091644;28;20465;-68
2022/01/13 10:50:38;;;;;;;67.43;10.30;;;;;;;;;;5091936;28;20954;-68
2022/01/13 10:53:06;;;;;;;68.87;10.40;;;;;;;;;;5091873;28;20486;-68
2022/01/13 10:55:36;;;;;;;74.00;10.60;;;;;;;;;;5091379;28;20543;-68
2022/01/13 10:58:03;;;;;;;68.37;10.40;;;;;;;;;;5091493;28;20451;-68
2022/01/13 11:00:32;;;;;;;65.90;10.07;;;;;;;;;;5091644;28;20469;-68
2022/01/13 11:03:06;;;;;;;68.30;10.50;;;;;;;;;;5091157;28;20561;-68
2022/01/13 11:05:34;;;;;;;66.57;9.37;;;;;;;;;;5111775;28;20993;-67
2022/01/13 11:08:03;;;;;;;66.00;8.80;;;;;;;;;;5111390;28;20449;-67
2022/01/13 11:10:30;;;;;;;65.50;8.00;;;;;;;;;;5111765;28;21092;-67
2022/01/13 11:12:59;;;;;;;67.73;8.93;;;;;;;;;;5111876;28;20486;-67
2022/01/13 11:15:27;;;;;;;70.37;8.70;;;;;;;;;;5111579;28;20974;-67
2022/01/13 11:17:55;;;;;;;68.50;8.20;;;;;;;;;;5111285;28;20540;-67
2022/01/13 11:20:25;;;;;;;64.70;8.03;;;;;;;;;;5111792;28;20827;-67
2022/01/13 11:22:53;;;;;;;66.20;9.17;;;;;;;;;;5111462;28;20466;-67
2022/01/13 11:25:23;;;;;;;66.37;8.20;;;;;;;;;;5111718;28;20500;-67
2022/01/13 11:27:50;;;;;;;66.70;8.80;;;;;;;;;;5111890;28;20506;-67
2022/01/13 11:30:19;;;;;;;66.40;9.50;;;;;;;;;;5111694;28;20449;-66
2022/01/13 11:32:47;;;;;;;68.17;8.57;;;;;;;;;;5111477;28;21001;-69
2022/01/13 11:35:15;;;;;;;67.30;9.70;;;;;;;;;;5110184;28;20446;-67
2022/01/13 11:37:44;;;;;;;63.97;8.90;;;;;;;;;;5111288;28;21017;-69
2022/01/13 11:40:32;;;;;;;66.47;8.97;;;;;;;;;;5111319;28;20449;-67
2022/01/13 11:43:00;;;;;;;63.97;7.80;;;;;;;;;;5111765;28;20468;-67
2022/01/13 11:45:28;;;;;;;63.60;7.40;;;;;;;;;;5111279;28;20841;-67
2022/01/13 11:48:12;;;;;;;67.00;8.80;;;;;;;;;;5111249;28;20446;-67
2022/01/13 11:50:45;;;;;;;65.70;9.57;;;;;;;;;;5111396;28;20446;-67
2022/01/13 11:53:21;;;;;;;62.93;7.57;;;;;;;;;;5111607;28;20499;-67
2022/01/13 11:55:52;;;;;;;65.10;8.50;;;;;;;;;;5111738;28;20822;-67
2022/01/13 11:58:21;;;;;;;64.50;7.77;;;;;;;;;;5110950;28;20453;-67
2022/01/13 12:00:50;;;;;;;64.33;7.13;;;;;;;;;;5111259;28;20454;-67
2022/01/13 12:03:28;;;;;;;65.17;8.70;;;;;;;;;;5110980;28;20552;-68
2022/01/13 12:05:56;;;;;;;64.87;8.33;;;;;;;;;;5111495;28;20446;-68
2022/01/13 12:08:38;;;;;;;65.60;8.23;;;;;;;;;;5099353;28;20541;-67
2022/01/13 12:11:06;;;;;;;66.93;8.57;;;;;;;;;;5094751;28;20529;-68
2022/01/13 12:13:35;;;;;;;64.90;8.73;;;;;;;;;;5094520;28;20920;-67
2022/01/13 12:16:02;;;;;;;63.20;8.03;;;;;;;;;;5094806;28;20456;-67
2022/01/13 12:18:44;;;;;;;64.93;8.20;;;;;;;;;;5094168;28;20453;-68
2022/01/13 12:21:25;;;;;;;64.77;7.83;;;;;;;;;;5093993;28;20545;-68
2022/01/13 12:23:54;;;;;;;65.07;9.23;;;;;;;;;;5094280;28;20470;-67
2022/01/13 12:26:39;;;;;;;64.77;8.53;;;;;;;;;;5094432;28;20442;-67
2022/01/13 12:29:13;;;;;;;63.77;7.73;;;;;;;;;;5094729;28;20875;-68
2022/01/13 12:31:49;;;;;;;64.00;7.97;;;;;;;;;;5095475;28;20508;-68
2022/01/13 12:34:24;;;;;;;65.20;8.30;;;;;;;;;;5094727;28;20493;-68
2022/01/13 12:36:51;;;;;;;65.60;8.63;;;;;;;;;;5094457;28;20438;-69
2022/01/13 12:39:19;;;;;;;64.37;8.27;;;;;;;;;;5092659;28;20478;-67
2022/01/13 12:41:59;;;;;;;66.87;8.90;;;;;;;;;;5093853;28;21008;-69
2022/01/13 12:47:09;;;;;;;63.23;8.20;;;;;;;;;;5093409;28;20530;-66
2022/01/13 12:49:36;;;;;;;65.60;8.87;;;;;;;;;;5094320;28;20879;-67
2022/01/13 12:52:04;;;;;;;66.97;9.63;;;;;;;;;;5094541;28;20459;-69
2022/01/13 12:54:33;;;;;;;66.73;8.87;;;;;;;;;;5094939;28;20534;-67
2022/01/13 12:57:02;;;;;;;65.07;9.20;;;;;;;;;;5094703;28;20457;-69
2022/01/13 12:59:29;;;;;;;67.70;9.40;;;;;;;;;;5094041;28;20443;-68
2022/01/13 13:01:58;;;;;;;66.00;8.43;;;;;;;;;;5093736;28;20472;-68
2022/01/13 13:04:25;;;;;;;65.63;9.23;;;;;;;;;;5093296;28;20939;-68
2022/01/13 13:06:54;;;;;;;63.60;7.53;;;;;;;;;;5093648;28;20534;-68
2022/01/13 13:09:22;;;;;;;64.30;8.43;;;;;;;;;;5093398;28;20459;-68
2022/01/13 13:11:55;;;;;;;63.77;7.20;;;;;;;;;;5109064;28;20478;-68
2022/01/13 13:14:32;;;;;;;65.30;8.07;;;;;;;;;;5114124;28;20523;-67
2022/01/13 13:17:00;;;;;;;65.03;8.03;;;;;;;;;;5114102;28;20445;-68
2022/01/13 13:19:27;;;;;;;64.77;8.13;;;;;;;;;;5113954;28;20530;-67
2022/01/13 13:21:55;;;;;;;64.33;7.67;;;;;;;;;;5113990;28;20835;-67
2022/01/13 13:24:23;;;;;;;65.10;7.87;;;;;;;;;;5113945;28;20461;-68
2022/01/13 13:26:52;;;;;;;66.10;8.80;;;;;;;;;;5113913;28;20557;-67
2022/01/13 13:29:24;;;;;;;67.30;7.60;;;;;;;;;;5113564;28;20525;-67
2022/01/13 13:31:53;;;;;;;65.17;8.33;;;;;;;;;;5113588;28;20476;-67
2022/01/13 13:34:21;;;;;;;66.77;8.50;;;;;;;;;;5113341;28;20445;-66
2022/01/13 13:36:50;;;;;;;65.87;8.83;;;;;;;;;;5113484;28;20791;-66
2022/01/13 13:39:19;;;;;;;65.87;8.73;;;;;;;;;;5113196;28;20514;-67
2022/01/13 13:41:47;;;;;;;73.03;8.27;;;;;;;;;;5111227;28;20466;-67
2022/01/13 13:44:18;;;;;;;68.40;8.73;;;;;;;;;;5112902;28;20578;-67
2022/01/13 13:46:45;;;;;;;63.80;7.57;;;;;;;;;;5113126;28;20448;-67
2022/01/13 13:49:13;;;;;;;65.83;9.37;;;;;;;;;;5112836;28;20445;-67
2022/01/13 13:51:40;;;;;;;66.60;9.07;;;;;;;;;;5112673;28;20549;-67
2022/01/13 13:54:12;;;;;;;63.77;7.63;;;;;;;;;;5113155;28;20446;-67
2022/01/13 13:56:40;;;;;;;66.30;9.13;;;;;;;;;;5113495;28;20457;-67
2022/01/13 13:59:12;;;;;;;66.17;8.53;;;;;;;;;;5112784;28;21025;-67
2022/01/13 14:01:40;;;;;;;66.40;8.70;;;;;;;;;;5112886;28;20757;-67
2022/01/13 14:04:07;;;;;;;65.27;8.20;;;;;;;;;;5112460;28;21013;-67
2022/01/13 14:06:41;;;;;;;67.67;9.10;;;;;;;;;;5112859;27;20452;-67
2022/01/13 14:09:10;;;;;;;66.10;7.90;;;;;;;;;;5112231;28;20549;-67
2022/01/13 14:11:43;;;;;;;65.47;8.67;;;;;;;;;;5112795;28;20470;-67
2022/01/13 14:14:12;;;;;;;66.60;8.60;;;;;;;;;;5110156;27;20445;-67
2022/01/13 14:16:41;;;;;;;64.43;8.23;;;;;;;;;;5113123;28;20446;-68
2022/01/13 14:19:10;;;;;;;64.10;9.53;;;;;;;;;;5112421;28;20450;-67
2022/01/13 14:21:50;;;;;;;66.80;9.37;;;;;;;;;;5112541;28;20469;-67
2022/01/13 14:24:34;;;;;;;66.60;7.90;;;;;;;;;;5112106;28;20481;-67
2022/01/13 14:27:08;;;;;;;65.67;9.33;;;;;;;;;;5112793;28;20445;-67
2022/01/13 14:29:35;;;;;;;65.53;7.53;;;;;;;;;;5111733;28;20442;-67
2022/01/13 14:32:23;;;;;;;69.87;9.43;;;;;;;;;;5112494;28;20483;-67
2022/01/13 14:34:52;;;;;;;68.83;9.57;;;;;;;;;;5108510;27;20446;-67
2022/01/13 14:37:20;;;;;;;67.53;8.93;;;;;;;;;;5114097;28;20448;-67
2022/01/13 14:40:06;;;;;;;67.10;9.57;;;;;;;;;;5112780;28;20532;-67
2022/01/13 14:42:33;;;;;;;67.20;9.17;;;;;;;;;;5112295;28;20490;-67
2022/01/13 14:45:16;;;;;;;67.90;9.40;;;;;;;;;;5105176;28;20478;-67
2022/01/13 14:47:44;;;;;;;67.20;9.23;;;;;;;;;;5091413;28;20446;-67
2022/01/13 14:50:12;;;;;;;68.10;9.53;;;;;;;;;;5091807;28;20451;-67